sensor_id;sensor_type;location;lat;lon;timestamp;temperature;humidity
25640;DHT22;13497;48.322;16.204;2023-02-01T00:01:55;4.40;99.90
25640;DHT22;13497;48.322;16.204;2023-02-01T00:04:21;4.50;99.90
25640;DHT22;13497;48.322;16.204;2023-02-01T00:06:48;4.50;99.90
25640;DHT22;13497;48.322;16.204;2023-02-01T00:09:14;4.40;99.90
25640;DHT22;13497;48.322;16.204;2023-02-01T00:11:40;4.40;99.90
25640;DHT22;13497;48.322;16.204;2023-02-01T00:14:06;4.40;99.90
25640;DHT22;13497;48.322;16.204;2023-02-01T00:16:32;4.40;99.90
25640;DHT22;13497;48.322;16.204;2023-02-01T00:19:01;4.40;99.90
25640;DHT22;13497;48.322;16.204;2023-02-01T00:21:27;4.40;99.90
25640;DHT22;13497;48.322;16.204;2023-02-01T00:23:53;4.40;99.90
25640;DHT22;13497;48.322;16.204;2023-02-01T00:29:03;4.40;99.90
25640;DHT22;13497;48.322;16.204;2023-02-01T00:31:30;4.40;99.90
25640;DHT22;13497;48.322;16.204;2023-02-01T00:33:55;4.50;99.90
25640;DHT22;13497;48.322;16.204;2023-02-01T00:36:21;4.40;99.90
25640;DHT22;13497;48.322;16.204;2023-02-01T00:38:47;4.50;99.90
25640;DHT22;13497;48.322;16.204;2023-02-01T00:41:18;4.40;99.90
25640;DHT22;13497;48.322;16.204;2023-02-01T00:43:44;4.40;99.90
25640;DHT22;13497;48.322;16.204;2023-02-01T00:46:12;4.40;99.90
25640;DHT22;13497;48.322;16.204;2023-02-01T00:48:38;4.40;99.90
25640;DHT22;13497;48.322;16.204;2023-02-01T00:51:10;4.40;99.90
25640;DHT22;13497;48.322;16.204;2023-02-01T00:53:38;4.40;99.90
25640;DHT22;13497;48.322;16.204;2023-02-01T00:56:04;4.40;99.90
25640;DHT22;13497;48.322;16.204;2023-02-01T00:58:31;4.40;99.90
25640;DHT22;13497;48.322;16.204;2023-02-01T01:03:31;4.40;99.90
25640;DHT22;13497;48.322;16.204;2023-02-01T01:06:02;4.40;99.90
25640;DHT22;13497;48.322;16.204;2023-02-01T01:08:28;4.40;99.90
25640;DHT22;13497;48.322;16.204;2023-02-01T01:10:53;4.40;99.90
25640;DHT22;13497;48.322;16.204;2023-02-01T01:13:19;4.40;99.90
25640;DHT22;13497;48.322;16.204;2023-02-01T01:15:45;4.30;99.90
25640;DHT22;13497;48.322;16.204;2023-02-01T01:18:11;4.40;99.90
25640;DHT22;13497;48.322;16.204;2023-02-01T01:20:38;4.40;99.90
25640;DHT22;13497;48.322;16.204;2023-02-01T01:23:05;4.40;99.90
25640;DHT22;13497;48.322;16.204;2023-02-01T01:25:31;4.40;99.90
25640;DHT22;13497;48.322;16.204;2023-02-01T01:27:56;4.40;99.90
25640;DHT22;13497;48.322;16.204;2023-02-01T01:30:22;4.30;99.90
25640;DHT22;13497;48.322;16.204;2023-02-01T01:32:48;4.20;99.90
25640;DHT22;13497;48.322;16.204;2023-02-01T01:35:14;4.20;99.90
25640;DHT22;13497;48.322;16.204;2023-02-01T01:37:39;4.10;99.90
25640;DHT22;13497;48.322;16.204;2023-02-01T01:40:06;4.10;99.90
25640;DHT22;13497;48.322;16.204;2023-02-01T01:42:41;4.10;99.90
25640;DHT22;13497;48.322;16.204;2023-02-01T01:45:26;4.10;99.90
25640;DHT22;13497;48.322;16.204;2023-02-01T01:48:04;4.20;99.90
25640;DHT22;13497;48.322;16.204;2023-02-01T01:50:36;4.20;99.90
25640;DHT22;13497;48.322;16.204;2023-02-01T01:53:05;4.30;99.90
25640;DHT22;13497;48.322;16.204;2023-02-01T01:55:37;4.30;99.90
25640;DHT22;13497;48.322;16.204;2023-02-01T01:58:07;4.30;99.90
25640;DHT22;13497;48.322;16.204;2023-02-01T02:00:34;4.30;99.90
25640;DHT22;13497;48.322;16.204;2023-02-01T02:03:33;4.30;99.90
25640;DHT22;13497;48.322;16.204;2023-02-01T02:06:02;4.30;99.90
25640;DHT22;13497;48.322;16.204;2023-02-01T02:08:29;4.40;99.90
25640;DHT22;13497;48.322;16.204;2023-02-01T02:10:55;4.40;99.90
25640;DHT22;13497;48.322;16.204;2023-02-01T02:13:29;4.40;99.90
25640;DHT22;13497;48.322;16.204;2023-02-01T02:16:14;4.40;99.90
25640;DHT22;13497;48.322;16.204;2023-02-01T02:34:54;4.50;99.90
25640;DHT22;13497;48.322;16.204;2023-02-01T02:45:50;4.60;99.90
25640;DHT22;13497;48.322;16.204;2023-02-01T02:48:40;4.50;99.90
25640;DHT22;13497;48.322;16.204;2023-02-01T02:54:06;4.50;99.90
25640;DHT22;13497;48.322;16.204;2023-02-01T02:56:52;4.50;99.90
25640;DHT22;13497;48.322;16.204;2023-02-01T02:59:38;4.60;99.90
25640;DHT22;13497;48.322;16.204;2023-02-01T03:02:26;4.60;99.90
25640;DHT22;13497;48.322;16.204;2023-02-01T03:05:11;4.60;99.90
25640;DHT22;13497;48.322;16.204;2023-02-01T03:13:01;4.50;99.90
25640;DHT22;13497;48.322;16.204;2023-02-01T03:15:41;4.60;99.90
25640;DHT22;13497;48.322;16.204;2023-02-01T03:18:14;4.50;99.90
25640;DHT22;13497;48.322;16.204;2023-02-01T03:20:43;4.50;99.90
25640;DHT22;13497;48.322;16.204;2023-02-01T03:23:12;4.50;99.90
25640;DHT22;13497;48.322;16.204;2023-02-01T03:25:40;4.50;99.90
25640;DHT22;13497;48.322;16.204;2023-02-01T03:28:08;4.50;99.90
25640;DHT22;13497;48.322;16.204;2023-02-01T03:30:41;4.50;99.90
25640;DHT22;13497;48.322;16.204;2023-02-01T03:33:15;4.50;99.90
25640;DHT22;13497;48.322;16.204;2023-02-01T03:38:30;4.40;99.90
25640;DHT22;13497;48.322;16.204;2023-02-01T03:41:27;4.40;99.90
25640;DHT22;13497;48.322;16.204;2023-02-01T03:47:07;4.40;99.90
25640;DHT22;13497;48.322;16.204;2023-02-01T03:49:40;4.40;99.90
25640;DHT22;13497;48.322;16.204;2023-02-01T03:52:10;4.50;99.90
25640;DHT22;13497;48.322;16.204;2023-02-01T03:54:38;4.50;99.90
25640;DHT22;13497;48.322;16.204;2023-02-01T03:57:08;4.50;99.90
25640;DHT22;13497;48.322;16.204;2023-02-01T03:59:39;4.60;99.90
25640;DHT22;13497;48.322;16.204;2023-02-01T04:02:05;4.70;99.90
25640;DHT22;13497;48.322;16.204;2023-02-01T04:04:31;4.70;99.90
25640;DHT22;13497;48.322;16.204;2023-02-01T04:06:57;4.70;99.90
25640;DHT22;13497;48.322;16.204;2023-02-01T04:09:22;4.70;99.90
25640;DHT22;13497;48.322;16.204;2023-02-01T04:11:48;4.70;99.90
25640;DHT22;13497;48.322;16.204;2023-02-01T04:14:13;4.70;99.90
25640;DHT22;13497;48.322;16.204;2023-02-01T04:16:39;4.70;99.90
25640;DHT22;13497;48.322;16.204;2023-02-01T04:19:05;4.70;99.90
25640;DHT22;13497;48.322;16.204;2023-02-01T04:21:30;4.70;99.90
25640;DHT22;13497;48.322;16.204;2023-02-01T04:23:56;4.70;99.90
25640;DHT22;13497;48.322;16.204;2023-02-01T04:26:22;4.80;99.90
25640;DHT22;13497;48.322;16.204;2023-02-01T04:28:48;4.80;99.90
25640;DHT22;13497;48.322;16.204;2023-02-01T04:31:14;4.80;99.90
25640;DHT22;13497;48.322;16.204;2023-02-01T04:33:40;4.80;99.90
25640;DHT22;13497;48.322;16.204;2023-02-01T04:36:06;4.80;99.90
25640;DHT22;13497;48.322;16.204;2023-02-01T04:38:32;4.80;99.90
25640;DHT22;13497;48.322;16.204;2023-02-01T04:40:58;4.80;99.90
25640;DHT22;13497;48.322;16.204;2023-02-01T04:43:24;4.90;99.90
25640;DHT22;13497;48.322;16.204;2023-02-01T04:45:50;4.90;99.90
25640;DHT22;13497;48.322;16.204;2023-02-01T04:48:17;4.80;99.90
25640;DHT22;13497;48.322;16.204;2023-02-01T04:50:43;4.80;99.90
25640;DHT22;13497;48.322;16.204;2023-02-01T04:53:11;4.80;99.90
25640;DHT22;13497;48.322;16.204;2023-02-01T04:55:36;4.80;99.90
25640;DHT22;13497;48.322;16.204;2023-02-01T04:58:02;4.80;99.90
25640;DHT22;13497;48.322;16.204;2023-02-01T05:00:28;4.80;99.90
25640;DHT22;13497;48.322;16.204;2023-02-01T05:02:53;4.90;99.90
25640;DHT22;13497;48.322;16.204;2023-02-01T05:05:19;4.90;99.90
25640;DHT22;13497;48.322;16.204;2023-02-01T05:07:45;4.90;99.90
25640;DHT22;13497;48.322;16.204;2023-02-01T05:10:11;4.90;99.90
25640;DHT22;13497;48.322;16.204;2023-02-01T05:12:37;4.90;99.90
25640;DHT22;13497;48.322;16.204;2023-02-01T05:15:21;5.00;99.90
25640;DHT22;13497;48.322;16.204;2023-02-01T05:17:47;4.90;99.90
25640;DHT22;13497;48.322;16.204;2023-02-01T05:20:12;4.90;99.90
25640;DHT22;13497;48.322;16.204;2023-02-01T05:22:38;4.90;99.90
25640;DHT22;13497;48.322;16.204;2023-02-01T05:25:04;4.90;99.90
25640;DHT22;13497;48.322;16.204;2023-02-01T05:27:30;5.00;99.90
25640;DHT22;13497;48.322;16.204;2023-02-01T05:29:56;5.00;99.90
25640;DHT22;13497;48.322;16.204;2023-02-01T05:32:21;5.00;99.90
25640;DHT22;13497;48.322;16.204;2023-02-01T05:34:47;5.00;99.90
25640;DHT22;13497;48.322;16.204;2023-02-01T05:37:12;5.00;99.90
25640;DHT22;13497;48.322;16.204;2023-02-01T05:39:38;5.00;99.90
25640;DHT22;13497;48.322;16.204;2023-02-01T05:42:04;5.10;99.90
25640;DHT22;13497;48.322;16.204;2023-02-01T05:44:30;5.10;99.90
25640;DHT22;13497;48.322;16.204;2023-02-01T05:46:56;5.10;99.90
25640;DHT22;13497;48.322;16.204;2023-02-01T05:49:23;5.10;99.90
25640;DHT22;13497;48.322;16.204;2023-02-01T05:51:48;5.10;99.90
25640;DHT22;13497;48.322;16.204;2023-02-01T05:54:14;5.10;99.90
25640;DHT22;13497;48.322;16.204;2023-02-01T05:56:40;5.00;99.90
25640;DHT22;13497;48.322;16.204;2023-02-01T05:59:06;5.10;99.90
25640;DHT22;13497;48.322;16.204;2023-02-01T06:01:32;5.00;99.90
25640;DHT22;13497;48.322;16.204;2023-02-01T06:03:57;5.00;99.90
25640;DHT22;13497;48.322;16.204;2023-02-01T06:06:23;5.00;99.90
25640;DHT22;13497;48.322;16.204;2023-02-01T06:08:49;5.00;99.90
25640;DHT22;13497;48.322;16.204;2023-02-01T06:11:18;5.00;99.90
25640;DHT22;13497;48.322;16.204;2023-02-01T06:13:46;5.00;99.90
25640;DHT22;13497;48.322;16.204;2023-02-01T06:16:12;5.00;99.90
25640;DHT22;13497;48.322;16.204;2023-02-01T06:18:40;5.00;99.90
25640;DHT22;13497;48.322;16.204;2023-02-01T06:21:07;5.10;99.90
25640;DHT22;13497;48.322;16.204;2023-02-01T06:23:33;5.10;99.90
25640;DHT22;13497;48.322;16.204;2023-02-01T06:26:06;5.10;99.90
25640;DHT22;13497;48.322;16.204;2023-02-01T06:28:35;5.10;99.90
25640;DHT22;13497;48.322;16.204;2023-02-01T06:31:04;5.20;99.90
25640;DHT22;13497;48.322;16.204;2023-02-01T06:33:32;5.20;99.90
25640;DHT22;13497;48.322;16.204;2023-02-01T06:35:59;5.20;99.90
25640;DHT22;13497;48.322;16.204;2023-02-01T06:38:25;5.20;99.90
25640;DHT22;13497;48.322;16.204;2023-02-01T06:40:56;5.20;99.90
25640;DHT22;13497;48.322;16.204;2023-02-01T06:43:23;5.20;99.90
25640;DHT22;13497;48.322;16.204;2023-02-01T06:45:50;5.20;99.90
25640;DHT22;13497;48.322;16.204;2023-02-01T06:48:16;5.20;99.90
25640;DHT22;13497;48.322;16.204;2023-02-01T06:50:41;5.30;99.90
25640;DHT22;13497;48.322;16.204;2023-02-01T06:53:07;5.30;99.90
25640;DHT22;13497;48.322;16.204;2023-02-01T06:55:33;5.30;99.90
25640;DHT22;13497;48.322;16.204;2023-02-01T06:57:58;5.30;99.90
25640;DHT22;13497;48.322;16.204;2023-02-01T07:00:24;5.30;99.90
25640;DHT22;13497;48.322;16.204;2023-02-01T07:02:50;5.30;99.90
25640;DHT22;13497;48.322;16.204;2023-02-01T07:05:16;5.30;99.90
25640;DHT22;13497;48.322;16.204;2023-02-01T07:07:42;5.30;99.90
25640;DHT22;13497;48.322;16.204;2023-02-01T07:10:09;5.30;99.90
25640;DHT22;13497;48.322;16.204;2023-02-01T07:12:35;5.30;99.90
25640;DHT22;13497;48.322;16.204;2023-02-01T07:15:01;5.40;99.90
25640;DHT22;13497;48.322;16.204;2023-02-01T07:17:27;5.40;99.90
25640;DHT22;13497;48.322;16.204;2023-02-01T07:19:55;5.40;99.90
25640;DHT22;13497;48.322;16.204;2023-02-01T07:22:20;5.40;99.90
25640;DHT22;13497;48.322;16.204;2023-02-01T07:24:46;5.40;99.90
25640;DHT22;13497;48.322;16.204;2023-02-01T07:27:12;5.40;99.90
25640;DHT22;13497;48.322;16.204;2023-02-01T07:29:38;5.40;99.90
25640;DHT22;13497;48.322;16.204;2023-02-01T07:32:04;5.40;99.90
25640;DHT22;13497;48.322;16.204;2023-02-01T07:34:29;5.40;99.90
25640;DHT22;13497;48.322;16.204;2023-02-01T07:36:56;5.40;99.90
25640;DHT22;13497;48.322;16.204;2023-02-01T07:39:22;5.40;99.90
25640;DHT22;13497;48.322;16.204;2023-02-01T07:41:47;5.40;99.90
25640;DHT22;13497;48.322;16.204;2023-02-01T07:44:13;5.40;99.90
25640;DHT22;13497;48.322;16.204;2023-02-01T07:46:39;5.50;99.90
25640;DHT22;13497;48.322;16.204;2023-02-01T07:49:05;5.40;99.90
25640;DHT22;13497;48.322;16.204;2023-02-01T07:51:32;5.40;99.90
25640;DHT22;13497;48.322;16.204;2023-02-01T07:53:58;5.50;99.90
25640;DHT22;13497;48.322;16.204;2023-02-01T07:56:23;5.50;99.90
25640;DHT22;13497;48.322;16.204;2023-02-01T07:58:52;5.50;99.90
25640;DHT22;13497;48.322;16.204;2023-02-01T08:01:20;5.50;99.90
25640;DHT22;13497;48.322;16.204;2023-02-01T08:03:47;5.60;99.90
25640;DHT22;13497;48.322;16.204;2023-02-01T08:06:13;5.60;99.90
25640;DHT22;13497;48.322;16.204;2023-02-01T08:08:39;5.60;99.90
25640;DHT22;13497;48.322;16.204;2023-02-01T08:11:06;5.60;99.90
25640;DHT22;13497;48.322;16.204;2023-02-01T08:13:33;5.60;99.90
25640;DHT22;13497;48.322;16.204;2023-02-01T08:15:59;5.60;99.90
25640;DHT22;13497;48.322;16.204;2023-02-01T08:18:25;5.60;99.90
25640;DHT22;13497;48.322;16.204;2023-02-01T08:20:51;5.60;99.90
25640;DHT22;13497;48.322;16.204;2023-02-01T08:23:17;5.70;99.90
25640;DHT22;13497;48.322;16.204;2023-02-01T08:25:44;5.70;99.90
25640;DHT22;13497;48.322;16.204;2023-02-01T08:28:10;5.70;99.90
25640;DHT22;13497;48.322;16.204;2023-02-01T08:30:39;5.70;99.90
25640;DHT22;13497;48.322;16.204;2023-02-01T08:33:06;5.70;99.90
25640;DHT22;13497;48.322;16.204;2023-02-01T08:35:34;5.70;99.90
25640;DHT22;13497;48.322;16.204;2023-02-01T08:38:00;5.80;99.90
25640;DHT22;13497;48.322;16.204;2023-02-01T08:40:26;5.80;99.90
25640;DHT22;13497;48.322;16.204;2023-02-01T08:42:51;5.80;99.90
25640;DHT22;13497;48.322;16.204;2023-02-01T08:45:19;5.80;99.90
25640;DHT22;13497;48.322;16.204;2023-02-01T08:47:49;5.90;99.90
25640;DHT22;13497;48.322;16.204;2023-02-01T08:50:16;5.90;99.90
25640;DHT22;13497;48.322;16.204;2023-02-01T08:52:42;5.90;99.90
25640;DHT22;13497;48.322;16.204;2023-02-01T08:55:09;5.90;99.90
25640;DHT22;13497;48.322;16.204;2023-02-01T08:57:35;5.90;99.90
25640;DHT22;13497;48.322;16.204;2023-02-01T09:00:02;5.90;99.90
25640;DHT22;13497;48.322;16.204;2023-02-01T09:02:29;5.90;99.90
25640;DHT22;13497;48.322;16.204;2023-02-01T09:04:55;5.90;99.90
25640;DHT22;13497;48.322;16.204;2023-02-01T09:07:21;5.90;99.90
25640;DHT22;13497;48.322;16.204;2023-02-01T09:09:47;5.90;99.90
25640;DHT22;13497;48.322;16.204;2023-02-01T09:12:13;5.90;99.90
25640;DHT22;13497;48.322;16.204;2023-02-01T09:14:38;5.90;99.90
25640;DHT22;13497;48.322;16.204;2023-02-01T09:17:04;5.80;99.90
25640;DHT22;13497;48.322;16.204;2023-02-01T09:22:55;5.80;99.90
25640;DHT22;13497;48.322;16.204;2023-02-01T09:25:20;5.80;99.90
25640;DHT22;13497;48.322;16.204;2023-02-01T09:27:46;5.80;99.90
25640;DHT22;13497;48.322;16.204;2023-02-01T09:30:12;5.90;99.90
25640;DHT22;13497;48.322;16.204;2023-02-01T09:32:37;5.90;99.90
25640;DHT22;13497;48.322;16.204;2023-02-01T09:35:03;5.90;99.90
25640;DHT22;13497;48.322;16.204;2023-02-01T09:37:29;6.00;99.90
25640;DHT22;13497;48.322;16.204;2023-02-01T09:39:54;6.00;99.90
25640;DHT22;13497;48.322;16.204;2023-02-01T09:45:35;5.90;99.90
25640;DHT22;13497;48.322;16.204;2023-02-01T09:47:35;5.90;99.90
25640;DHT22;13497;48.322;16.204;2023-02-01T09:50:15;5.90;99.90
25640;DHT22;13497;48.322;16.204;2023-02-01T09:58:00;6.00;99.90
25640;DHT22;13497;48.322;16.204;2023-02-01T10:00:30;6.00;99.90
25640;DHT22;13497;48.322;16.204;2023-02-01T10:44:43;6.10;99.90
25640;DHT22;13497;48.322;16.204;2023-02-01T10:47:11;6.10;99.90
25640;DHT22;13497;48.322;16.204;2023-02-01T10:50:04;6.10;99.90
25640;DHT22;13497;48.322;16.204;2023-02-01T10:52:40;6.00;99.90
25640;DHT22;13497;48.322;16.204;2023-02-01T10:58:02;5.90;99.90
25640;DHT22;13497;48.322;16.204;2023-02-01T11:00:33;6.00;99.90
25640;DHT22;13497;48.322;16.204;2023-02-01T11:03:00;5.90;99.90
25640;DHT22;13497;48.322;16.204;2023-02-01T11:05:45;5.90;99.90
25640;DHT22;13497;48.322;16.204;2023-02-01T11:08:16;5.80;99.90
25640;DHT22;13497;48.322;16.204;2023-02-01T11:10:42;5.70;99.90
25640;DHT22;13497;48.322;16.204;2023-02-01T11:13:18;5.80;99.90
25640;DHT22;13497;48.322;16.204;2023-02-01T11:15:45;5.80;99.90
25640;DHT22;13497;48.322;16.204;2023-02-01T11:18:33;5.70;99.90
25640;DHT22;13497;48.322;16.204;2023-02-01T11:21:00;5.60;99.90
25640;DHT22;13497;48.322;16.204;2023-02-01T11:23:28;5.50;99.90
25640;DHT22;13497;48.322;16.204;2023-02-01T11:25:59;5.50;99.90
25640;DHT22;13497;48.322;16.204;2023-02-01T11:28:32;5.40;99.90
25640;DHT22;13497;48.322;16.204;2023-02-01T11:31:03;5.50;99.90
25640;DHT22;13497;48.322;16.204;2023-02-01T11:33:32;5.40;99.90
25640;DHT22;13497;48.322;16.204;2023-02-01T11:36:07;5.40;99.90
25640;DHT22;13497;48.322;16.204;2023-02-01T11:38:34;5.40;99.90
25640;DHT22;13497;48.322;16.204;2023-02-01T11:41:13;5.30;99.90
25640;DHT22;13497;48.322;16.204;2023-02-01T11:43:51;5.20;99.90
25640;DHT22;13497;48.322;16.204;2023-02-01T11:46:18;5.20;99.90
25640;DHT22;13497;48.322;16.204;2023-02-01T11:48:51;5.20;99.90
25640;DHT22;13497;48.322;16.204;2023-02-01T11:54:27;5.30;99.90
25640;DHT22;13497;48.322;16.204;2023-02-01T12:10:22;5.70;99.90
25640;DHT22;13497;48.322;16.204;2023-02-01T12:18:13;5.90;99.90
25640;DHT22;13497;48.322;16.204;2023-02-01T12:20:57;6.10;99.90
25640;DHT22;13497;48.322;16.204;2023-02-01T12:29:47;6.60;99.90
25640;DHT22;13497;48.322;16.204;2023-02-01T12:35:01;6.70;99.90
25640;DHT22;13497;48.322;16.204;2023-02-01T12:43:11;6.70;99.90
25640;DHT22;13497;48.322;16.204;2023-02-01T12:45:46;6.90;99.90
25640;DHT22;13497;48.322;16.204;2023-02-01T12:48:27;7.10;99.90
25640;DHT22;13497;48.322;16.204;2023-02-01T12:51:06;7.20;99.90
25640;DHT22;13497;48.322;16.204;2023-02-01T12:56:11;7.30;99.90
25640;DHT22;13497;48.322;16.204;2023-02-01T12:58:50;7.40;99.90
25640;DHT22;13497;48.322;16.204;2023-02-01T13:01:26;7.40;99.90
25640;DHT22;13497;48.322;16.204;2023-02-01T13:04:13;7.30;99.90
25640;DHT22;13497;48.322;16.204;2023-02-01T13:06:47;7.30;99.90
25640;DHT22;13497;48.322;16.204;2023-02-01T13:09:36;7.10;99.90
25640;DHT22;13497;48.322;16.204;2023-02-01T13:12:10;7.20;99.90
25640;DHT22;13497;48.322;16.204;2023-02-01T13:14:43;7.20;99.90
25640;DHT22;13497;48.322;16.204;2023-02-01T13:17:29;7.10;99.90
25640;DHT22;13497;48.322;16.204;2023-02-01T13:20:21;7.10;99.90
25640;DHT22;13497;48.322;16.204;2023-02-01T13:23:03;7.20;99.90
25640;DHT22;13497;48.322;16.204;2023-02-01T13:25:35;7.30;99.90
25640;DHT22;13497;48.322;16.204;2023-02-01T13:28:09;7.30;99.90
25640;DHT22;13497;48.322;16.204;2023-02-01T13:31:04;7.40;99.90
25640;DHT22;13497;48.322;16.204;2023-02-01T13:41:37;7.60;99.90
25640;DHT22;13497;48.322;16.204;2023-02-01T13:44:13;7.60;99.90
25640;DHT22;13497;48.322;16.204;2023-02-01T13:46:42;7.50;99.90
25640;DHT22;13497;48.322;16.204;2023-02-01T13:49:38;7.50;99.90
25640;DHT22;13497;48.322;16.204;2023-02-01T13:52:05;7.50;99.90
25640;DHT22;13497;48.322;16.204;2023-02-01T13:54:38;7.40;99.90
25640;DHT22;13497;48.322;16.204;2023-02-01T13:57:13;7.40;99.90
25640;DHT22;13497;48.322;16.204;2023-02-01T14:05:04;7.50;99.90
25640;DHT22;13497;48.322;16.204;2023-02-01T14:07:33;7.40;99.90
25640;DHT22;13497;48.322;16.204;2023-02-01T14:13:05;7.20;99.90
25640;DHT22;13497;48.322;16.204;2023-02-01T14:15:37;7.20;99.90
25640;DHT22;13497;48.322;16.204;2023-02-01T14:26:47;7.00;99.90
25640;DHT22;13497;48.322;16.204;2023-02-01T14:34:50;6.60;99.90
25640;DHT22;13497;48.322;16.204;2023-02-01T14:39:55;6.40;99.90
25640;DHT22;13497;48.322;16.204;2023-02-01T14:44:48;6.40;99.90
25640;DHT22;13497;48.322;16.204;2023-02-01T14:52:23;6.40;99.90
25640;DHT22;13497;48.322;16.204;2023-02-01T14:54:55;6.30;99.90
25640;DHT22;13497;48.322;16.204;2023-02-01T14:57:25;6.20;99.90
25640;DHT22;13497;48.322;16.204;2023-02-01T15:00:14;6.10;99.90
25640;DHT22;13497;48.322;16.204;2023-02-01T15:02:43;5.90;99.90
25640;DHT22;13497;48.322;16.204;2023-02-01T15:05:35;5.80;99.90
25640;DHT22;13497;48.322;16.204;2023-02-01T15:08:16;5.80;99.90
25640;DHT22;13497;48.322;16.204;2023-02-01T15:10:46;5.70;99.90
25640;DHT22;13497;48.322;16.204;2023-02-01T15:13:19;5.60;99.90
25640;DHT22;13497;48.322;16.204;2023-02-01T15:18:27;5.50;99.90
25640;DHT22;13497;48.322;16.204;2023-02-01T15:20:59;5.40;99.90
25640;DHT22;13497;48.322;16.204;2023-02-01T15:23:25;5.30;99.90
25640;DHT22;13497;48.322;16.204;2023-02-01T15:25:51;5.30;99.90
25640;DHT22;13497;48.322;16.204;2023-02-01T15:28:17;5.30;99.90
25640;DHT22;13497;48.322;16.204;2023-02-01T15:31:04;5.30;99.90
25640;DHT22;13497;48.322;16.204;2023-02-01T15:33:33;5.30;99.90
25640;DHT22;13497;48.322;16.204;2023-02-01T15:36:25;5.30;99.90
25640;DHT22;13497;48.322;16.204;2023-02-01T15:41:50;5.40;99.90
25640;DHT22;13497;48.322;16.204;2023-02-01T15:46:48;5.30;99.90
25640;DHT22;13497;48.322;16.204;2023-02-01T15:49:37;5.30;99.90
25640;DHT22;13497;48.322;16.204;2023-02-01T15:52:22;5.30;99.90
25640;DHT22;13497;48.322;16.204;2023-02-01T15:54:52;5.20;99.90
25640;DHT22;13497;48.322;16.204;2023-02-01T15:57:27;5.20;99.90
25640;DHT22;13497;48.322;16.204;2023-02-01T15:59:57;5.20;99.90
25640;DHT22;13497;48.322;16.204;2023-02-01T16:02:41;5.30;99.90
25640;DHT22;13497;48.322;16.204;2023-02-01T16:05:37;5.20;99.90
25640;DHT22;13497;48.322;16.204;2023-02-01T16:08:14;5.30;99.90
25640;DHT22;13497;48.322;16.204;2023-02-01T16:10:46;5.30;99.90
25640;DHT22;13497;48.322;16.204;2023-02-01T16:13:13;5.30;99.90
25640;DHT22;13497;48.322;16.204;2023-02-01T16:15:39;5.40;99.90
25640;DHT22;13497;48.322;16.204;2023-02-01T16:18:06;5.40;99.90
25640;DHT22;13497;48.322;16.204;2023-02-01T16:20:36;5.50;99.90
25640;DHT22;13497;48.322;16.204;2023-02-01T16:23:03;5.50;99.90
25640;DHT22;13497;48.322;16.204;2023-02-01T16:25:29;5.50;99.90
25640;DHT22;13497;48.322;16.204;2023-02-01T16:27:54;5.60;99.90
25640;DHT22;13497;48.322;16.204;2023-02-01T16:30:20;5.60;99.90
25640;DHT22;13497;48.322;16.204;2023-02-01T16:32:54;5.70;99.90
25640;DHT22;13497;48.322;16.204;2023-02-01T16:35:33;5.60;99.90
25640;DHT22;13497;48.322;16.204;2023-02-01T16:38:08;5.60;99.90
25640;DHT22;13497;48.322;16.204;2023-02-01T16:40:39;5.60;99.90
25640;DHT22;13497;48.322;16.204;2023-02-01T16:43:12;5.60;99.90
25640;DHT22;13497;48.322;16.204;2023-02-01T16:45:38;5.50;99.90
25640;DHT22;13497;48.322;16.204;2023-02-01T16:48:06;5.50;99.90
25640;DHT22;13497;48.322;16.204;2023-02-01T16:50:33;5.40;99.90
25640;DHT22;13497;48.322;16.204;2023-02-01T16:52:59;5.50;99.90
25640;DHT22;13497;48.322;16.204;2023-02-01T16:55:26;5.40;99.90
25640;DHT22;13497;48.322;16.204;2023-02-01T16:57:53;5.40;99.90
25640;DHT22;13497;48.322;16.204;2023-02-01T17:00:19;5.40;99.90
25640;DHT22;13497;48.322;16.204;2023-02-01T17:02:45;5.40;99.90
25640;DHT22;13497;48.322;16.204;2023-02-01T17:05:11;5.40;99.90
25640;DHT22;13497;48.322;16.204;2023-02-01T17:07:38;5.40;99.90
25640;DHT22;13497;48.322;16.204;2023-02-01T17:10:06;5.40;99.90
25640;DHT22;13497;48.322;16.204;2023-02-01T17:12:34;5.40;99.90
25640;DHT22;13497;48.322;16.204;2023-02-01T17:15:01;5.40;99.90
25640;DHT22;13497;48.322;16.204;2023-02-01T17:17:32;5.40;99.90
25640;DHT22;13497;48.322;16.204;2023-02-01T17:20:00;5.40;99.90
25640;DHT22;13497;48.322;16.204;2023-02-01T17:22:26;5.30;99.90
25640;DHT22;13497;48.322;16.204;2023-02-01T17:24:52;5.30;99.90
25640;DHT22;13497;48.322;16.204;2023-02-01T17:27:17;5.30;99.90
25640;DHT22;13497;48.322;16.204;2023-02-01T17:29:43;5.30;99.90
25640;DHT22;13497;48.322;16.204;2023-02-01T17:32:23;5.30;99.90
25640;DHT22;13497;48.322;16.204;2023-02-01T17:34:49;5.30;99.90
25640;DHT22;13497;48.322;16.204;2023-02-01T17:37:29;5.30;99.90
25640;DHT22;13497;48.322;16.204;2023-02-01T17:39:55;5.30;99.90
25640;DHT22;13497;48.322;16.204;2023-02-01T17:42:25;5.30;99.90
25640;DHT22;13497;48.322;16.204;2023-02-01T17:44:57;5.20;99.90
25640;DHT22;13497;48.322;16.204;2023-02-01T17:47:24;5.20;99.90
25640;DHT22;13497;48.322;16.204;2023-02-01T17:49:50;5.20;99.90
25640;DHT22;13497;48.322;16.204;2023-02-01T17:52:22;5.30;99.90
25640;DHT22;13497;48.322;16.204;2023-02-01T17:54:48;5.30;99.90
25640;DHT22;13497;48.322;16.204;2023-02-01T17:57:16;5.30;99.90
25640;DHT22;13497;48.322;16.204;2023-02-01T17:59:42;5.30;99.90
25640;DHT22;13497;48.322;16.204;2023-02-01T18:02:28;5.30;99.90
25640;DHT22;13497;48.322;16.204;2023-02-01T18:04:54;5.40;99.90
25640;DHT22;13497;48.322;16.204;2023-02-01T18:07:20;5.40;99.90
25640;DHT22;13497;48.322;16.204;2023-02-01T18:09:45;5.40;99.90
25640;DHT22;13497;48.322;16.204;2023-02-01T18:12:20;5.40;99.90
25640;DHT22;13497;48.322;16.204;2023-02-01T18:14:46;5.40;99.90
25640;DHT22;13497;48.322;16.204;2023-02-01T18:17:12;5.30;99.90
25640;DHT22;13497;48.322;16.204;2023-02-01T18:19:37;5.30;99.90
25640;DHT22;13497;48.322;16.204;2023-02-01T18:22:03;5.30;99.90
25640;DHT22;13497;48.322;16.204;2023-02-01T18:24:30;5.30;99.90
25640;DHT22;13497;48.322;16.204;2023-02-01T18:26:58;5.30;99.90
25640;DHT22;13497;48.322;16.204;2023-02-01T18:29:24;5.30;99.90
25640;DHT22;13497;48.322;16.204;2023-02-01T18:31:49;5.40;99.90
25640;DHT22;13497;48.322;16.204;2023-02-01T18:34:16;5.40;99.90
25640;DHT22;13497;48.322;16.204;2023-02-01T18:36:47;5.30;99.90
25640;DHT22;13497;48.322;16.204;2023-02-01T18:39:13;5.20;99.90
25640;DHT22;13497;48.322;16.204;2023-02-01T18:41:38;5.30;99.90
25640;DHT22;13497;48.322;16.204;2023-02-01T18:44:05;5.30;99.90
25640;DHT22;13497;48.322;16.204;2023-02-01T18:46:31;5.20;99.90
25640;DHT22;13497;48.322;16.204;2023-02-01T18:48:56;5.20;99.90
25640;DHT22;13497;48.322;16.204;2023-02-01T18:51:22;5.20;99.90
25640;DHT22;13497;48.322;16.204;2023-02-01T18:53:49;5.20;99.90